Time;durP1;ratioP1;P1;durP2;ratioP2;P2;SDS_P1;SDS_P2;PMS_P1;PMS_P2;Temp;Humidity;BMP_temperature;BMP_pressure;BME280_temperature;BME280_humidity;BME280_pressure;Samples;Min_cycle;Max_cycle;Signal;HPM_P1;HPM_P2
2022/08/19 00:00:50;;;;;;;18.70;14.58;;;;;;;23.08;68.23;98421.55;2190837;81;20936;-84
2022/08/19 00:03:51;;;;;;;16.75;14.40;;;;;;;23.09;68.22;98422.81;2190966;81;20963;-84
2022/08/19 00:06:51;;;;;;;17.98;14.33;;;;;;;23.10;68.12;98415.70;2190963;81;20941;-84
2022/08/19 00:09:52;;;;;;;17.40;13.08;;;;;;;23.09;68.16;98411.30;2190778;81;21273;-84
2022/08/19 00:12:52;;;;;;;22.05;14.43;;;;;;;23.09;68.13;98411.30;2190784;81;20933;-84
2022/08/19 00:15:52;;;;;;;35.68;14.70;;;;;;;23.10;68.05;98414.36;2179691;81;21025;-83
2022/08/19 00:18:53;;;;;;;22.22;15.08;;;;;;;23.09;68.63;98408.64;2174523;81;21304;-83
2022/08/19 00:21:54;;;;;;;23.70;15.20;;;;;;;22.96;68.92;98399.02;2174194;81;20905;-84
2022/08/19 00:24:54;;;;;;;25.10;14.30;;;;;;;22.93;69.06;98406.28;2174092;81;20897;-83
2022/08/19 00:27:54;;;;;;;28.23;13.85;;;;;;;22.88;68.93;98401.16;2174070;81;20969;-84
2022/08/19 00:30:55;;;;;;;24.12;15.80;;;;;;;22.76;69.18;98398.55;2174321;81;20902;-83
2022/08/19 00:33:55;;;;;;;29.07;14.10;;;;;;;22.74;69.51;98402.21;2173892;81;20929;-83
2022/08/19 00:36:55;;;;;;;21.85;14.60;;;;;;;22.73;69.99;98396.02;2173947;81;20921;-82
2022/08/19 00:39:56;;;;;;;19.30;14.13;;;;;;;22.84;70.01;98396.91;2174062;81;20969;-83
2022/08/19 00:42:56;;;;;;;19.62;14.65;;;;;;;22.87;69.44;98400.30;2173492;81;21340;-81
2022/08/19 00:45:57;;;;;;;21.30;13.60;;;;;;;22.92;69.59;98395.23;2173766;82;20985;-83
2022/08/19 00:48:57;;;;;;;21.48;13.60;;;;;;;22.93;69.50;98399.63;2173821;82;21340;-83
2022/08/19 00:51:57;;;;;;;19.57;12.70;;;;;;;22.96;69.56;98400.34;2173758;81;20967;-82
2022/08/19 00:54:58;;;;;;;13.65;12.25;;;;;;;23.02;69.21;98397.88;2173827;81;20961;-84
2022/08/19 00:57:58;;;;;;;18.70;13.35;;;;;;;23.05;68.88;98402.59;2173779;81;20964;-84
2022/08/19 01:00:59;;;;;;;21.50;13.60;;;;;;;23.08;68.97;98400.27;2173601;81;20929;-83
2022/08/19 01:03:59;;;;;;;18.20;13.35;;;;;;;23.06;68.89;98397.67;2173702;81;20886;-83
2022/08/19 01:06:59;;;;;;;16.93;13.43;;;;;;;23.06;68.71;98393.67;2173713;81;21300;-83
2022/08/19 01:10:00;;;;;;;14.15;12.35;;;;;;;23.04;68.65;98387.56;2173650;81;20961;-84
2022/08/19 01:13:00;;;;;;;22.50;13.00;;;;;;;22.98;68.71;98386.97;2173850;81;20932;-83
2022/08/19 01:16:01;;;;;;;14.70;13.22;;;;;;;23.03;68.63;98388.96;2173534;82;21012;-84
2022/08/19 01:19:01;;;;;;;13.88;12.65;;;;;;;23.04;68.56;98390.22;2173775;81;20961;-84
2022/08/19 01:22:01;;;;;;;17.48;13.40;;;;;;;23.04;68.43;98386.23;2173959;81;20965;-83
2022/08/19 01:25:02;;;;;;;14.43;13.18;;;;;;;23.03;68.39;98388.49;2173896;81;20913;-84
2022/08/19 01:28:02;;;;;;;16.57;13.72;;;;;;;23.04;68.47;98386.70;2173667;81;21360;-84
2022/08/19 01:31:03;;;;;;;19.07;12.78;;;;;;;23.09;68.38;98391.34;2173821;81;20905;-84
2022/08/19 01:34:03;;;;;;;15.18;13.18;;;;;;;23.05;68.33;98388.42;2174092;81;20893;-84
2022/08/19 01:37:03;;;;;;;15.83;12.55;;;;;;;23.06;68.27;98381.70;2173971;81;20959;-84
2022/08/19 01:40:04;;;;;;;17.07;12.90;;;;;;;23.05;68.17;98376.44;2173893;81;20957;-84
2022/08/19 01:43:05;;;;;;;15.98;13.00;;;;;;;22.96;68.41;98371.54;2174075;81;20930;-84
2022/08/19 01:46:05;;;;;;;17.10;14.13;;;;;;;22.95;68.39;98373.80;2174202;81;20985;-84
2022/08/19 01:49:05;;;;;;;34.55;14.58;;;;;;;22.94;68.47;98373.41;2173953;81;21385;-81
2022/08/19 01:52:05;;;;;;;23.75;13.50;;;;;;;22.93;68.80;98371.68;2173967;81;20957;-84
2022/08/19 01:55:06;;;;;;;20.05;14.07;;;;;;;22.93;68.66;98369.88;2174136;81;20937;-84
2022/08/19 01:58:06;;;;;;;14.55;13.05;;;;;;;22.89;68.64;98370.95;2173891;81;20985;-84
2022/08/19 02:01:07;;;;;;;15.35;13.25;;;;;;;22.90;68.65;98363.37;2174058;81;21289;-83
2022/08/19 02:04:07;;;;;;;23.83;12.78;;;;;;;22.88;68.53;98362.11;2173911;82;20969;-83
2022/08/19 02:07:07;;;;;;;14.90;13.20;;;;;;;22.81;68.58;98354.01;2174054;81;20933;-83
2022/08/19 02:10:08;;;;;;;14.65;13.15;;;;;;;22.77;68.97;98352.39;2174082;81;20952;-83
2022/08/19 02:13:08;;;;;;;14.43;12.93;;;;;;;22.80;68.83;98355.41;2173694;81;20957;-84
2022/08/19 02:16:09;;;;;;;15.68;14.13;;;;;;;22.77;68.73;98358.17;2173504;81;21028;-83
2022/08/19 02:19:10;;;;;;;19.25;14.15;;;;;;;22.70;68.93;98360.71;2173902;81;20997;-83
2022/08/19 02:22:09;;;;;;;16.23;13.32;;;;;;;22.70;69.10;98356.25;2174665;81;21312;-84
2022/08/19 02:25:10;;;;;;;36.75;15.53;;;;;;;22.74;69.04;98355.19;2174635;81;20917;-79
2022/08/19 02:28:11;;;;;;;28.07;14.70;;;;;;;22.76;69.47;98344.01;2174797;81;20948;-84
2022/08/19 02:31:11;;;;;;;25.17;13.80;;;;;;;22.78;69.47;98340.81;2174677;81;20956;-84
2022/08/19 02:34:11;;;;;;;18.32;13.58;;;;;;;22.79;69.34;98338.55;2174614;81;20961;-84
2022/08/19 02:38:25;;;;;;;63.00;18.57;;;;;;;22.71;69.15;98328.72;2174483;81;20981;-84
2022/08/19 02:40:12;;;;;;;33.88;13.53;;;;;;;22.74;69.70;98331.70;2174710;81;20897;-84
2022/08/19 02:43:12;;;;;;;38.40;14.78;;;;;;;22.80;69.52;98332.80;2174256;81;20974;-84
2022/08/19 02:46:13;;;;;;;21.50;14.25;;;;;;;22.70;69.41;98330.98;2174217;81;20992;-83
2022/08/19 02:49:16;;;;;;;17.30;12.58;;;;;;;22.72;69.56;98333.58;2174368;81;20925;-83
2022/08/19 02:52:14;;;;;;;45.63;16.82;;;;;;;22.70;69.48;98327.45;2174541;81;21296;-82
2022/08/19 02:55:14;;;;;;;29.05;13.68;;;;;;;22.66;69.69;98321.88;2174927;81;20921;-83
2022/08/19 02:58:14;;;;;;;21.75;13.85;;;;;;;22.66;69.82;98332.52;2174196;81;20889;-84
2022/08/19 03:01:15;;;;;;;22.70;13.72;;;;;;;22.70;69.75;98336.77;2174474;81;20964;-83
2022/08/19 03:04:15;;;;;;;25.88;14.35;;;;;;;22.75;69.51;98340.09;2174308;82;20937;-83
2022/08/19 03:07:16;;;;;;;20.35;13.43;;;;;;;22.74;69.73;98341.02;2174282;82;21005;-84
2022/08/19 03:10:16;;;;;;;24.52;14.30;;;;;;;22.78;69.76;98344.80;2174357;81;20929;-84
2022/08/19 03:13:16;;;;;;;20.57;14.00;;;;;;;22.82;69.55;98345.56;2174232;81;20918;-85
2022/08/19 03:16:17;;;;;;;16.07;13.25;;;;;;;22.81;69.26;98354.01;2183696;81;20984;-85
2022/08/19 03:19:17;;;;;;;21.23;13.38;;;;;;;22.80;69.25;98355.41;2191207;81;20984;-83
2022/08/19 03:22:18;;;;;;;26.73;14.30;;;;;;;22.75;69.43;98352.92;2190677;81;20940;-84
2022/08/19 03:25:18;;;;;;;20.45;13.10;;;;;;;22.78;70.05;98353.25;2190723;81;20901;-84
2022/08/19 03:28:19;;;;;;;21.60;14.50;;;;;;;22.75;70.29;98350.73;2190592;81;20973;-84
2022/08/19 03:31:19;;;;;;;23.75;13.15;;;;;;;22.76;70.65;98355.11;2190730;81;20945;-83
2022/08/19 03:34:19;;;;;;;16.48;13.83;;;;;;;22.80;70.37;98350.95;2190608;81;20932;-83
2022/08/19 03:37:20;;;;;;;15.15;13.70;;;;;;;22.83;70.25;98356.59;2190509;81;20972;-83
2022/08/19 03:40:20;;;;;;;22.55;14.28;;;;;;;22.85;69.92;98360.05;2190372;81;20972;-84
2022/08/19 03:43:20;;;;;;;14.18;12.73;;;;;;;22.82;69.61;98365.05;2190380;81;21342;-83
2022/08/19 03:46:21;;;;;;;15.15;12.75;;;;;;;22.60;69.93;98364.25;2189774;81;21035;-83
2022/08/19 03:49:21;;;;;;;29.15;14.05;;;;;;;22.50;70.03;98378.84;2187553;81;20920;-82
2022/08/19 03:52:22;;;;;;;15.58;12.80;;;;;;;22.34;70.31;98375.13;2187169;81;21071;-81
2022/08/19 03:55:22;;;;;;;14.98;12.47;;;;;;;21.97;70.64;98367.34;2187465;81;21223;-81
2022/08/19 03:58:22;;;;;;;15.72;12.28;;;;;;;21.65;71.55;98365.11;2188208;81;20916;-81
2022/08/19 04:01:23;;;;;;;19.73;12.40;;;;;;;21.44;72.06;98365.05;2188080;81;21380;-85
2022/08/19 04:04:23;;;;;;;13.88;12.73;;;;;;;21.27;72.97;98375.45;2189566;81;21229;-86
2022/08/19 04:07:24;;;;;;;15.43;12.58;;;;;;;21.16;74.40;98377.63;2188344;81;21038;-85
2022/08/19 04:10:24;;;;;;;15.08;13.58;;;;;;;21.08;74.47;98377.05;2188307;81;20999;-84
2022/08/19 04:13:25;;;;;;;18.20;13.03;;;;;;;21.02;75.03;98382.12;2188951;81;20980;-84
2022/08/19 04:16:28;;;;;;;16.55;12.53;;;;;;;20.98;75.28;98386.69;2188398;81;21027;-84
2022/08/19 04:19:25;;;;;;;15.72;12.78;;;;;;;21.01;75.89;98390.14;2186759;81;21047;-84
2022/08/19 04:22:26;;;;;;;18.85;13.40;;;;;;;21.03;75.80;98393.14;2187620;81;21019;-84
2022/08/19 04:25:26;;;;;;;14.35;12.93;;;;;;;21.08;75.53;98388.99;2187947;81;21245;-85
2022/08/19 04:28:26;;;;;;;16.05;13.32;;;;;;;21.12;76.50;98373.36;2187920;81;20928;-83
2022/08/19 04:31:27;;;;;;;26.57;13.78;;;;;;;21.11;76.37;98375.15;2188329;81;21034;-84
2022/08/19 04:34:28;;;;;;;15.45;13.75;;;;;;;21.13;76.37;98376.41;2188144;81;21010;-84
2022/08/19 04:37:32;;;;;;;19.42;13.68;;;;;;;21.16;76.10;98385.59;2188393;81;20968;-84
2022/08/19 04:43:48;;;;;;;15.25;12.90;;;;;;;21.28;76.18;98372.75;2188385;81;20996;-84
2022/08/19 04:46:47;;;;;;;19.30;12.75;;;;;;;21.34;76.17;98375.63;2188132;81;21003;-84
2022/08/19 04:49:48;;;;;;;18.12;14.35;;;;;;;21.40;75.85;98381.16;2188081;81;20999;-84
2022/08/19 04:52:48;;;;;;;28.12;14.20;;;;;;;21.42;75.92;98377.52;2187371;81;20929;-84
2022/08/19 04:55:49;;;;;;;69.67;16.77;;;;;;;21.47;75.86;98380.85;2187203;81;20960;-81
2022/08/19 04:58:51;;;;;;;18.48;12.90;;;;;;;21.53;75.74;98389.04;2187099;81;20964;-81
2022/08/19 05:01:49;;;;;;;29.07;14.23;;;;;;;21.59;75.77;98387.01;2186900;81;21604;-83
2022/08/19 05:04:50;;;;;;;18.62;12.90;;;;;;;21.64;75.43;98385.50;2186928;81;20991;-81
2022/08/19 05:07:50;;;;;;;17.35;13.68;;;;;;;21.73;75.33;98386.95;2187941;81;21025;-81
2022/08/19 05:10:51;;;;;;;18.23;13.75;;;;;;;21.78;75.26;98392.48;2187470;81;20992;-82
2022/08/19 05:13:51;;;;;;;25.72;14.95;;;;;;;21.88;75.06;98394.30;2187448;81;20987;-82
2022/08/19 05:16:51;;;;;;;12.95;11.73;;;;;;;22.07;74.96;98391.78;2187596;81;21144;-80
2022/08/19 05:23:11;;;;;;;21.40;12.30;;;;;;;22.37;73.82;98389.62;2187651;81;20991;-82
2022/08/19 05:26:15;;;;;;;38.02;14.73;;;;;;;22.53;73.32;98396.87;2188071;81;21052;-80
2022/08/19 05:29:14;;;;;;;16.15;12.20;;;;;;;22.71;72.92;98393.03;2169008;81;21043;-81
2022/08/19 05:32:14;;;;;;;18.55;11.70;;;;;;;22.84;72.32;98397.77;2186612;81;21003;-81
2022/08/19 05:35:14;;;;;;;12.90;11.60;;;;;;;22.97;72.17;98407.41;2186325;81;20984;-82
2022/08/19 05:38:15;;;;;;;12.82;11.53;;;;;;;23.14;71.70;98409.30;2186843;81;20964;-81
2022/08/19 05:41:17;;;;;;;15.70;11.70;;;;;;;23.34;71.13;98406.58;2186339;81;21739;-81
2022/08/19 05:44:16;;;;;;;20.32;11.55;;;;;;;23.54;70.81;98408.80;2186397;81;21035;-83
2022/08/19 05:47:16;;;;;;;13.72;11.10;;;;;;;23.68;69.81;98413.91;2186064;81;21070;-80
2022/08/19 05:50:17;;;;;;;14.07;11.00;;;;;;;23.85;69.49;98409.09;2186476;81;21007;-81
2022/08/19 05:53:17;;;;;;;35.38;13.35;;;;;;;23.93;69.09;98410.91;2186911;81;20996;-82
2022/08/19 05:56:17;;;;;;;25.12;11.68;;;;;;;24.03;68.61;98421.98;2186513;81;20960;-82
2022/08/19 05:59:18;;;;;;;12.85;11.12;;;;;;;24.20;67.92;98427.81;2186351;81;20964;-82
2022/08/19 06:02:18;;;;;;;33.30;11.93;;;;;;;24.31;67.37;98426.41;2186765;81;20953;-82
2022/08/19 06:05:19;;;;;;;12.20;10.72;;;;;;;24.37;66.88;98419.90;2186390;81;21647;-82
2022/08/19 06:08:19;;;;;;;14.78;11.30;;;;;;;24.47;66.86;98420.30;2186527;81;20964;-83
2022/08/19 06:11:19;;;;;;;12.73;11.33;;;;;;;24.59;66.82;98419.19;2187331;81;21055;-83
2022/08/19 06:14:20;;;;;;;16.52;10.58;;;;;;;24.84;66.59;98421.92;2186956;81;20990;-82
2022/08/19 06:17:20;;;;;;;15.28;10.78;;;;;;;25.07;65.58;98426.46;2175602;81;21051;-82
2022/08/19 06:20:20;;;;;;;13.43;10.70;;;;;;;25.24;64.82;98426.92;2170735;81;20992;-83
2022/08/19 06:23:21;;;;;;;13.53;10.60;;;;;;;25.34;64.63;98422.80;2170962;81;21008;-82
2022/08/19 06:26:21;;;;;;;13.65;10.90;;;;;;;25.51;64.80;98404.51;2170938;81;21017;-83
2022/08/19 06:29:22;;;;;;;14.07;11.05;;;;;;;25.73;63.70;98404.20;2171739;81;20992;-82
2022/08/19 06:32:22;;;;;;;12.10;10.35;;;;;;;25.95;63.76;98413.20;2172474;81;21800;-82
2022/08/19 06:35:22;;;;;;;13.78;10.53;;;;;;;26.19;63.42;98421.65;2172935;81;20979;-83
2022/08/19 06:38:23;;;;;;;24.15;12.13;;;;;;;26.44;62.52;98425.13;2172083;81;21004;-80
2022/08/19 06:41:23;;;;;;;16.05;10.48;;;;;;;26.70;61.60;98424.91;2171704;81;20924;-82
2022/08/19 06:44:25;;;;;;;11.10;9.80;;;;;;;26.81;61.42;98425.97;2171449;81;21909;-82
2022/08/19 06:47:25;;;;;;;14.13;10.08;;;;;;;27.00;60.55;98424.92;2170643;81;21055;-82
2022/08/19 06:50:25;;;;;;;11.35;10.10;;;;;;;27.05;59.78;98422.81;2170626;81;20976;-82
2022/08/19 06:53:27;;;;;;;58.38;14.20;;;;;;;27.13;58.50;98425.41;2170883;82;20964;-81
2022/08/19 06:56:30;;;;;;;10.50;9.43;;;;;;;27.09;58.55;98419.86;2170967;81;21288;-83
2022/08/19 06:59:27;;;;;;;10.28;9.20;;;;;;;27.03;58.72;98423.39;2170809;81;21003;-81
2022/08/19 07:02:26;;;;;;;13.05;9.28;;;;;;;27.07;58.37;98424.45;2170607;81;21007;-82
2022/08/19 07:05:27;;;;;;;10.93;9.33;;;;;;;27.09;58.23;98420.34;2170380;81;20984;-82
2022/08/19 07:08:28;;;;;;;16.82;9.55;;;;;;;27.07;58.58;98415.07;2159628;82;21103;-81
2022/08/19 07:11:28;;;;;;;13.88;9.73;;;;;;;27.19;58.66;98415.64;2169345;81;21435;-76
2022/08/19 07:14:29;;;;;;;11.00;9.65;;;;;;;27.37;58.09;98412.77;2167497;81;21268;-80
2022/08/19 07:17:29;;;;;;;10.68;9.43;;;;;;;27.56;58.37;98421.36;2169723;82;21039;-80
2022/08/19 07:20:29;;;;;;;10.78;9.00;;;;;;;27.78;57.23;98425.80;2170481;81;22050;-80
2022/08/19 07:23:30;;;;;;;13.08;9.43;;;;;;;28.00;57.33;98431.09;2170445;81;20968;-79
2022/08/19 07:26:30;;;;;;;10.05;9.18;;;;;;;28.27;56.74;98440.05;2170587;81;21361;-80
2022/08/19 07:29:32;;;;;;;28.45;10.93;;;;;;;28.42;56.39;98437.67;2170539;81;21005;-80
2022/08/19 07:32:31;;;;;;;26.95;10.60;;;;;;;28.65;55.44;98436.63;2169870;81;20962;-80
2022/08/19 07:35:31;;;;;;;13.32;9.08;;;;;;;28.94;54.52;98444.06;2169441;81;20949;-80
2022/08/19 07:38:32;;;;;;;12.98;9.00;;;;;;;29.14;53.66;98444.39;2166698;81;20984;-80
2022/08/19 07:41:32;;;;;;;11.12;9.20;;;;;;;29.17;52.71;98443.32;2167628;82;21025;-80
2022/08/19 07:44:33;;;;;;;11.50;9.80;;;;;;;29.17;53.04;98452.25;2169841;81;21531;-80
2022/08/19 07:47:33;;;;;;;16.50;9.40;;;;;;;29.27;53.05;98440.84;2169319;81;21011;-80
2022/08/19 07:50:34;;;;;;;11.97;9.30;;;;;;;29.33;53.09;98448.48;2170209;81;21356;-82
2022/08/19 07:53:34;;;;;;;10.85;9.83;;;;;;;29.42;52.76;98439.76;2170632;81;21048;-80
2022/08/19 07:56:34;;;;;;;21.27;10.63;;;;;;;29.44;52.33;98452.16;2170604;81;21233;-80
2022/08/19 07:59:35;;;;;;;14.35;9.50;;;;;;;29.54;52.45;98451.05;2170340;81;20969;-81
2022/08/19 08:02:35;;;;;;;10.48;8.83;;;;;;;29.57;52.39;98456.20;2170223;81;21559;-82
2022/08/19 08:09:15;;;;;;;13.08;9.48;;;;;;;30.06;51.58;98454.88;2169667;82;21004;-81
2022/08/19 08:12:14;;;;;;;12.07;9.68;;;;;;;30.14;50.40;98457.48;2169720;82;20961;-80
2022/08/19 08:15:16;;;;;;;137.62;20.65;;;;;;;30.13;50.38;98464.70;2169572;81;20960;-79
2022/08/19 08:18:13;;;;;;;23.27;10.28;;;;;;;30.16;50.54;98468.51;2182451;81;21131;-81
2022/08/19 08:21:14;;;;;;;34.18;10.78;;;;;;;30.36;50.27;98464.36;2186373;81;20984;-80
2022/08/19 08:24:14;;;;;;;11.75;9.13;;;;;;;30.55;50.30;98469.23;2186033;81;21028;-80
2022/08/19 08:27:15;;;;;;;11.75;9.80;;;;;;;30.63;49.17;98468.19;2186091;81;21014;-81
2022/08/19 08:30:15;;;;;;;13.28;9.48;;;;;;;30.74;49.12;98466.88;2185927;81;20979;-82
2022/08/19 08:33:15;;;;;;;11.63;8.25;;;;;;;30.83;48.89;98468.87;2186103;81;21015;-83
2022/08/19 08:36:16;;;;;;;11.35;8.83;;;;;;;30.86;48.85;98471.33;2185822;81;20943;-82
2022/08/19 08:39:16;;;;;;;11.70;8.85;;;;;;;31.00;48.56;98465.73;2186200;81;21042;-81
2022/08/19 08:42:19;;;;;;;;;;;;;;;31.22;48.24;98474.91;2188225;81;21704;-81
2022/08/19 08:45:20;;;;;;;8.93;8.03;;;;;;;31.39;47.42;98469.05;2186186;81;20120;-81
2022/08/19 08:48:20;;;;;;;16.27;9.33;;;;;;;31.41;47.68;98474.31;2185950;81;21063;-83
2022/08/19 08:51:21;;;;;;;11.03;8.13;;;;;;;31.55;47.48;98478.98;2186548;81;21439;-82
2022/08/19 08:54:21;;;;;;;9.80;8.30;;;;;;;31.77;47.24;98480.85;2186315;81;20963;-82
2022/08/19 08:57:21;;;;;;;13.62;9.08;;;;;;;32.05;46.78;98483.52;2186840;81;21015;-80
2022/08/19 09:00:22;;;;;;;13.30;9.20;;;;;;;32.19;46.53;98485.98;2187141;81;20971;-79
2022/08/19 09:03:22;;;;;;;10.28;8.90;;;;;;;32.20;45.64;98479.59;2188022;81;21974;-77
2022/08/19 09:06:22;;;;;;;15.75;8.80;;;;;;;32.32;45.03;98489.05;2186279;81;21007;-78
2022/08/19 09:09:23;;;;;;;10.20;8.90;;;;;;;32.34;44.02;98492.48;2186598;81;21016;-80
2022/08/19 09:12:23;;;;;;;33.35;13.75;;;;;;;32.40;44.14;98490.63;2186147;81;21051;-80
2022/08/19 09:15:24;;;;;;;14.40;9.15;;;;;;;32.55;45.01;98483.45;2187865;81;20952;-81
2022/08/19 09:18:25;;;;;;;16.82;9.38;;;;;;;32.82;43.87;98487.05;2188118;81;21007;-82
2022/08/19 09:21:25;;;;;;;36.08;11.75;;;;;;;32.81;43.89;98479.93;2187024;81;21558;-80
2022/08/19 09:24:25;;;;;;;12.55;8.68;;;;;;;32.96;43.74;98479.64;2187263;81;20932;-82
2022/08/19 09:27:25;;;;;;;12.37;8.60;;;;;;;33.10;42.87;98477.47;2187234;81;20960;-82
2022/08/19 09:30:26;;;;;;;13.03;8.90;;;;;;;32.90;43.20;98478.29;2187573;81;21280;-79
2022/08/19 09:33:26;;;;;;;11.55;8.75;;;;;;;32.83;43.57;98472.55;2187201;81;21023;-80
2022/08/19 09:36:28;;;;;;;14.75;9.10;;;;;;;32.88;43.59;98471.66;2186412;81;20975;-80
2022/08/19 09:39:27;;;;;;;9.75;7.80;;;;;;;33.02;43.61;98466.95;2186492;81;20952;-80
2022/08/19 09:42:27;;;;;;;9.73;8.40;;;;;;;33.29;43.51;98463.20;2186570;81;21016;-81
2022/08/19 09:45:28;;;;;;;9.88;7.78;;;;;;;33.29;42.84;98467.76;2187037;81;21359;-79
2022/08/19 09:48:28;;;;;;;22.52;9.03;;;;;;;33.43;42.71;98465.59;2185946;81;21051;-80
2022/08/19 09:51:29;;;;;;;10.53;8.23;;;;;;;33.60;42.53;98460.05;2188061;81;20992;-79
2022/08/19 09:54:29;;;;;;;10.30;8.05;;;;;;;33.60;41.13;98464.60;2186772;81;20964;-79
2022/08/19 09:57:30;;;;;;;15.48;8.45;;;;;;;33.61;41.77;98456.84;2187114;81;20944;-79
2022/08/19 10:00:31;;;;;;;10.23;8.28;;;;;;;33.86;40.56;98457.78;2187244;81;20940;-79
2022/08/19 10:03:30;;;;;;;9.88;8.30;;;;;;;34.02;40.40;98458.12;2186692;81;20991;-79
2022/08/19 10:06:33;;;;;;;12.37;8.23;;;;;;;34.16;40.07;98452.30;2185297;81;20992;-80
2022/08/19 10:09:31;;;;;;;11.65;7.70;;;;;;;34.29;40.04;98440.34;2187478;81;21003;-79
2022/08/19 10:12:33;;;;;;;14.25;8.25;;;;;;;34.43;39.03;98445.38;2188347;81;21395;-80
2022/08/19 10:15:32;;;;;;;8.20;7.28;;;;;;;34.44;39.47;98448.45;2187266;81;21250;-79
2022/08/19 10:18:35;;;;;;;48.40;10.20;;;;;;;34.48;39.49;98437.69;2173864;81;21068;-78
2022/08/19 10:21:34;;;;;;;15.65;7.35;;;;;;;34.64;39.80;98435.76;2169462;81;20937;-79
2022/08/19 10:24:33;;;;;;;10.50;7.50;;;;;;;34.86;38.84;98432.81;2168211;81;21408;-79
2022/08/19 10:27:34;;;;;;;10.40;7.33;;;;;;;34.90;38.71;98438.80;2168758;82;20964;-79
2022/08/19 10:30:34;;;;;;;10.03;7.37;;;;;;;34.99;37.88;98432.50;2169105;82;20997;-80
2022/08/19 10:33:35;;;;;;;19.07;8.50;;;;;;;35.11;36.96;98428.12;2168148;81;20960;-81
2022/08/19 10:36:35;;;;;;;14.43;7.03;;;;;;;35.18;36.87;98424.82;2170236;81;21008;-82
2022/08/19 10:39:35;;;;;;;15.80;7.28;;;;;;;35.20;37.06;98427.73;2170201;81;20984;-81
2022/08/19 10:42:36;;;;;;;11.88;7.67;;;;;;;35.26;36.48;98420.37;2170971;81;20961;-81
2022/08/19 10:45:36;;;;;;;9.70;6.60;;;;;;;35.21;35.92;98421.31;2171135;82;20977;-82
2022/08/19 10:48:37;;;;;;;12.55;7.95;;;;;;;35.19;35.90;98426.03;2170770;81;21182;-78
2022/08/19 10:58:15;;;;;;;13.95;7.25;;;;;;;35.50;35.66;98419.88;2172293;82;21365;-81
2022/08/19 11:01:15;;;;;;;11.63;6.60;;;;;;;35.57;35.22;98435.10;2172673;81;20954;-79
2022/08/19 11:04:17;;;;;;;11.75;6.72;;;;;;;35.62;34.77;98421.94;2171669;81;20980;-79
2022/08/19 11:07:16;;;;;;;12.15;7.35;;;;;;;35.65;35.01;98425.70;2171707;81;21031;-81
2022/08/19 11:10:18;;;;;;;109.30;16.30;;;;;;;35.49;35.08;98418.67;2171051;82;20953;-79
2022/08/19 11:13:17;;;;;;;12.30;6.50;;;;;;;35.57;35.17;98415.60;2170754;81;20983;-80
2022/08/19 11:16:17;;;;;;;10.65;6.85;;;;;;;35.57;35.11;98417.46;2169478;81;21879;-78
2022/08/19 11:19:18;;;;;;;10.95;6.90;;;;;;;35.44;35.20;98413.70;2182490;81;21051;-78
2022/08/19 11:22:18;;;;;;;10.78;6.70;;;;;;;35.56;34.70;98407.61;2184735;81;20991;-80
2022/08/19 11:25:18;;;;;;;11.55;7.00;;;;;;;35.72;34.48;98410.53;2183509;81;21023;-78
2022/08/19 11:28:19;;;;;;;6.87;6.15;;;;;;;35.85;34.53;98400.70;2183435;81;21019;-79
2022/08/19 11:31:19;;;;;;;8.43;6.58;;;;;;;35.95;34.46;98406.42;2185341;81;20948;-79
2022/08/19 11:34:20;;;;;;;13.35;6.78;;;;;;;36.01;34.28;98395.45;2184397;81;21412;-78
2022/08/19 11:37:25;;;;;;;9.88;6.78;;;;;;;35.91;33.83;98393.30;2182813;81;22110;-79
2022/08/19 11:40:25;;;;;;;13.22;6.92;;;;;;;35.99;34.38;98394.25;2183672;81;20963;-79
2022/08/19 11:43:26;;;;;;;11.73;6.75;;;;;;;36.08;34.18;98394.34;2184801;81;20988;-79
2022/08/19 11:46:30;;;;;;;12.25;6.65;;;;;;;36.13;34.23;98383.86;2186354;81;21520;-80
2022/08/19 11:49:29;;;;;;;;;;;;;;;36.23;33.14;98394.16;2171661;81;21078;-79
2022/08/19 11:52:29;;;;;;;15.68;6.28;;;;;;;36.31;32.79;98391.55;2187465;81;20140;-80
2022/08/19 11:55:29;;;;;;;10.05;6.65;;;;;;;36.27;32.93;98386.04;2187833;81;21027;-80
2022/08/19 11:58:30;;;;;;;11.10;7.33;;;;;;;36.35;32.66;98384.80;2187270;81;21321;-81
2022/08/19 12:01:31;;;;;;;7.92;6.25;;;;;;;36.39;32.77;98382.11;2187772;81;21386;-78
2022/08/19 12:04:31;;;;;;;11.50;6.58;;;;;;;36.38;32.41;98379.05;2186553;81;21327;-79
2022/08/19 12:07:32;;;;;;;9.25;6.45;;;;;;;36.40;32.26;98362.58;2186085;81;21122;-78
2022/08/19 12:10:31;;;;;;;14.87;6.70;;;;;;;36.47;32.23;98367.27;2186285;81;21904;-78
2022/08/19 12:13:32;;;;;;;27.67;7.17;;;;;;;36.32;32.05;98363.36;2186902;81;20976;-80
2022/08/19 12:16:32;;;;;;;13.22;5.95;;;;;;;36.27;32.65;98363.80;2186512;81;20994;-80
2022/08/19 12:19:33;;;;;;;8.63;6.10;;;;;;;36.41;32.67;98362.42;2173356;81;21474;-79
2022/08/19 12:22:34;;;;;;;15.20;6.33;;;;;;;36.36;32.53;98362.89;2170511;81;21473;-80
2022/08/19 12:25:34;;;;;;;9.05;5.72;;;;;;;36.40;32.61;98363.94;2169967;81;20976;-80
2022/08/19 12:28:34;;;;;;;9.58;6.00;;;;;;;36.41;32.16;98362.93;2169375;82;21028;-80
2022/08/19 12:31:34;;;;;;;15.23;6.70;;;;;;;36.28;31.60;98363.29;2168979;81;21405;-80
2022/08/19 12:34:37;;;;;;;6.97;6.33;;;;;;;36.20;31.78;98371.37;2169568;81;20957;-80
2022/08/19 12:37:35;;;;;;;8.90;6.58;;;;;;;36.13;32.26;98369.77;2169589;82;20944;-80
2022/08/19 12:40:35;;;;;;;6.55;5.92;;;;;;;36.12;32.11;98365.34;2170145;81;21593;-80
2022/08/19 12:43:36;;;;;;;9.05;6.62;;;;;;;36.10;32.66;98361.08;2169406;81;20983;-80
2022/08/19 12:46:36;;;;;;;19.00;7.70;;;;;;;36.04;32.75;98361.19;2169865;81;20973;-80
2022/08/19 12:49:39;;;;;;;;;;;;;;;36.04;32.63;98374.77;2161373;82;21015;-80
2022/08/19 12:52:42;;;;;;;11.35;6.70;;;;;;;35.90;32.58;98366.65;2170598;81;20152;-79
2022/08/19 12:55:39;;;;;;;15.58;6.53;;;;;;;35.99;32.91;98379.31;2171576;81;20933;-78
2022/08/19 12:58:41;;;;;;;101.33;14.85;;;;;;;36.14;32.10;98385.57;2171473;81;21001;-79
2022/08/19 13:01:41;;;;;;;12.85;6.75;;;;;;;36.23;31.63;98384.64;2172416;82;20981;-80
2022/08/19 13:04:41;;;;;;;12.65;10.53;;;;;;;36.19;31.69;98376.45;2172528;82;20941;-80
2022/08/19 13:07:43;;;;;;;13.22;6.90;;;;;;;36.06;31.72;98379.05;2171473;81;20999;-79
2022/08/19 13:10:42;;;;;;;15.03;5.78;;;;;;;36.12;31.96;98374.00;2171090;81;20961;-80
2022/08/19 13:13:42;;;;;;;13.18;6.45;;;;;;;36.14;30.85;98369.27;2171665;82;21332;-80
2022/08/19 13:16:42;;;;;;;12.20;6.17;;;;;;;36.19;31.34;98378.66;2171797;81;21343;-79
2022/08/19 13:19:43;;;;;;;8.55;6.05;;;;;;;36.26;31.46;98375.67;2171648;81;21032;-82
2022/08/19 13:22:44;;;;;;;8.13;5.95;;;;;;;36.27;31.38;98376.53;2170645;81;20972;-81
2022/08/19 13:25:43;;;;;;;10.38;6.37;;;;;;;36.21;31.70;98371.21;2170108;81;20981;-82
2022/08/19 13:35:22;;;;;;;14.45;6.28;;;;;;;36.37;32.02;98370.03;2170349;82;20973;-82
2022/08/19 13:38:22;;;;;;;13.45;6.50;;;;;;;36.42;31.33;98364.16;2170163;81;21135;-82
2022/08/19 13:41:23;;;;;;;10.82;6.10;;;;;;;36.43;31.06;98360.94;2171174;81;21031;-80
2022/08/19 13:44:23;;;;;;;18.57;6.62;;;;;;;36.43;31.73;98356.36;2171367;81;21687;-80
2022/08/19 13:47:24;;;;;;;14.35;6.22;;;;;;;36.43;31.55;98355.00;2171875;82;20984;-80
2022/08/19 13:50:25;;;;;;;16.45;6.30;;;;;;;36.38;31.69;98346.43;2172318;82;21060;-78
2022/08/19 13:53:24;;;;;;;11.68;6.65;;;;;;;36.36;31.36;98349.30;2172182;81;21419;-80
2022/08/19 13:56:25;;;;;;;9.68;6.53;;;;;;;36.31;31.71;98340.77;2171663;82;21060;-80
2022/08/19 13:59:25;;;;;;;15.75;6.35;;;;;;;36.27;31.75;98341.20;2171569;81;20999;-78
2022/08/19 14:02:26;;;;;;;16.20;6.60;;;;;;;36.22;32.13;98344.89;2172231;81;20945;-78
2022/08/19 14:05:26;;;;;;;17.70;6.20;;;;;;;36.32;32.24;98336.19;2171573;82;20998;-81
2022/08/19 14:08:27;;;;;;;9.58;6.17;;;;;;;36.29;31.51;98335.14;2171182;81;21383;-79
2022/08/19 14:11:27;;;;;;;10.78;6.45;;;;;;;36.11;31.91;98350.56;2170273;81;21055;-80
2022/08/19 14:14:28;;;;;;;40.67;35.92;;;;;;;36.01;31.95;98339.77;2170336;81;20972;-80
2022/08/19 14:17:28;;;;;;;40.33;11.18;;;;;;;35.86;32.50;98351.67;2169318;81;21992;-77